sensor_id;sensor_type;location;lat;lon;timestamp;P1;durP1;ratioP1;P2;durP2;ratioP2
75858;SDS011;64504;51.308;8.620;2022-11-20T00:01:21;2.25;;;2.03;;
75858;SDS011;64504;51.308;8.620;2022-11-20T00:03:48;2.37;;;0.83;;
75858;SDS011;64504;51.308;8.620;2022-11-20T00:06:15;0.63;;;0.63;;
75858;SDS011;64504;51.308;8.620;2022-11-20T00:08:42;3.20;;;1.83;;
75858;SDS011;64504;51.308;8.620;2022-11-20T00:11:26;4.37;;;1.40;;
75858;SDS011;64504;51.308;8.620;2022-11-20T00:13:56;1.23;;;1.23;;
75858;SDS011;64504;51.308;8.620;2022-11-20T00:16:23;2.97;;;1.67;;
75858;SDS011;64504;51.308;8.620;2022-11-20T00:18:50;6.57;;;2.43;;
75858;SDS011;64504;51.308;8.620;2022-11-20T00:21:25;2.23;;;2.07;;
75858;SDS011;64504;51.308;8.620;2022-11-20T00:23:54;1.90;;;1.77;;
75858;SDS011;64504;51.308;8.620;2022-11-20T00:26:21;1.30;;;1.20;;
75858;SDS011;64504;51.308;8.620;2022-11-20T00:28:52;3.67;;;1.70;;
75858;SDS011;64504;51.308;8.620;2022-11-20T00:31:19;5.10;;;2.30;;
75858;SDS011;64504;51.308;8.620;2022-11-20T00:33:45;2.03;;;1.60;;
75858;SDS011;64504;51.308;8.620;2022-11-20T00:36:11;1.87;;;1.73;;
75858;SDS011;64504;51.308;8.620;2022-11-20T00:38:40;1.67;;;1.50;;
75858;SDS011;64504;51.308;8.620;2022-11-20T00:41:07;1.80;;;1.70;;
75858;SDS011;64504;51.308;8.620;2022-11-20T00:43:33;3.27;;;2.03;;
75858;SDS011;64504;51.308;8.620;2022-11-20T00:46:00;1.47;;;1.07;;
75858;SDS011;64504;51.308;8.620;2022-11-20T00:48:26;1.15;;;1.15;;
75858;SDS011;64504;51.308;8.620;2022-11-20T00:50:52;1.37;;;1.27;;
75858;SDS011;64504;51.308;8.620;2022-11-20T00:53:18;5.57;;;2.10;;
75858;SDS011;64504;51.308;8.620;2022-11-20T00:55:52;2.53;;;1.77;;
75858;SDS011;64504;51.308;8.620;2022-11-20T00:58:21;2.67;;;1.30;;
75858;SDS011;64504;51.308;8.620;2022-11-20T01:00:47;1.63;;;1.52;;
75858;SDS011;64504;51.308;8.620;2022-11-20T01:03:14;1.95;;;1.30;;
75858;SDS011;64504;51.308;8.620;2022-11-20T01:05:41;2.13;;;1.60;;
75858;SDS011;64504;51.308;8.620;2022-11-20T01:08:07;4.30;;;1.25;;
75858;SDS011;64504;51.308;8.620;2022-11-20T01:10:32;0.98;;;0.98;;
75858;SDS011;64504;51.308;8.620;2022-11-20T01:12:58;0.63;;;0.63;;
75858;SDS011;64504;51.308;8.620;2022-11-20T01:15:42;0.77;;;0.77;;
75858;SDS011;64504;51.308;8.620;2022-11-20T01:18:08;1.00;;;0.93;;
75858;SDS011;64504;51.308;8.620;2022-11-20T01:20:36;1.00;;;0.90;;
75858;SDS011;64504;51.308;8.620;2022-11-20T01:23:02;0.30;;;0.30;;
75858;SDS011;64504;51.308;8.620;2022-11-20T01:25:28;1.00;;;0.90;;
75858;SDS011;64504;51.308;8.620;2022-11-20T01:27:54;1.23;;;0.87;;
75858;SDS011;64504;51.308;8.620;2022-11-20T01:30:19;0.37;;;0.37;;
75858;SDS011;64504;51.308;8.620;2022-11-20T01:32:44;0.40;;;0.40;;
75858;SDS011;64504;51.308;8.620;2022-11-20T01:35:10;0.40;;;0.40;;
75858;SDS011;64504;51.308;8.620;2022-11-20T01:37:36;0.43;;;0.43;;
75858;SDS011;64504;51.308;8.620;2022-11-20T01:40:01;2.77;;;1.00;;
75858;SDS011;64504;51.308;8.620;2022-11-20T01:42:28;0.47;;;0.47;;
75858;SDS011;64504;51.308;8.620;2022-11-20T01:48:15;0.63;;;0.63;;
75858;SDS011;64504;51.308;8.620;2022-11-20T01:50:43;0.40;;;0.40;;
75858;SDS011;64504;51.308;8.620;2022-11-20T01:53:10;0.77;;;0.60;;
75858;SDS011;64504;51.308;8.620;2022-11-20T01:55:39;0.80;;;0.80;;
75858;SDS011;64504;51.308;8.620;2022-11-20T01:58:08;0.73;;;0.73;;
75858;SDS011;64504;51.308;8.620;2022-11-20T02:00:33;0.70;;;0.70;;
75858;SDS011;64504;51.308;8.620;2022-11-20T02:03:09;1.40;;;1.30;;
75858;SDS011;64504;51.308;8.620;2022-11-20T02:05:47;1.47;;;1.00;;
75858;SDS011;64504;51.308;8.620;2022-11-20T02:08:15;1.30;;;1.20;;
75858;SDS011;64504;51.308;8.620;2022-11-20T02:10:41;0.50;;;0.50;;
75858;SDS011;64504;51.308;8.620;2022-11-20T02:13:07;1.77;;;1.50;;
75858;SDS011;64504;51.308;8.620;2022-11-20T02:15:52;1.30;;;1.20;;
75858;SDS011;64504;51.308;8.620;2022-11-20T02:18:19;3.60;;;1.87;;
75858;SDS011;64504;51.308;8.620;2022-11-20T02:20:46;1.42;;;1.33;;
75858;SDS011;64504;51.308;8.620;2022-11-20T02:25:44;0.93;;;0.93;;
75858;SDS011;64504;51.308;8.620;2022-11-20T02:28:11;2.20;;;2.10;;
75858;SDS011;64504;51.308;8.620;2022-11-20T02:30:36;1.83;;;0.90;;
75858;SDS011;64504;51.308;8.620;2022-11-20T02:33:02;2.20;;;1.05;;
75858;SDS011;64504;51.308;8.620;2022-11-20T02:37:54;0.57;;;0.57;;
75858;SDS011;64504;51.308;8.620;2022-11-20T02:40:20;1.13;;;1.13;;
75858;SDS011;64504;51.308;8.620;2022-11-20T02:42:45;0.87;;;0.87;;
75858;SDS011;64504;51.308;8.620;2022-11-20T02:45:11;0.77;;;0.77;;
75858;SDS011;64504;51.308;8.620;2022-11-20T02:47:37;0.73;;;0.57;;
75858;SDS011;64504;51.308;8.620;2022-11-20T02:50:03;0.90;;;0.88;;
75858;SDS011;64504;51.308;8.620;2022-11-20T02:52:29;1.27;;;1.00;;
75858;SDS011;64504;51.308;8.620;2022-11-20T02:54:55;0.73;;;0.50;;
75858;SDS011;64504;51.308;8.620;2022-11-20T02:57:20;0.60;;;0.60;;
75858;SDS011;64504;51.308;8.620;2022-11-20T02:59:46;2.38;;;1.15;;
75858;SDS011;64504;51.308;8.620;2022-11-20T03:02:11;1.57;;;0.77;;
75858;SDS011;64504;51.308;8.620;2022-11-20T03:04:37;0.60;;;0.60;;
75858;SDS011;64504;51.308;8.620;2022-11-20T03:07:03;1.07;;;1.07;;
75858;SDS011;64504;51.308;8.620;2022-11-20T03:09:29;0.77;;;0.77;;
75858;SDS011;64504;51.308;8.620;2022-11-20T03:11:54;2.00;;;1.08;;
75858;SDS011;64504;51.308;8.620;2022-11-20T03:14:20;0.88;;;0.82;;
75858;SDS011;64504;51.308;8.620;2022-11-20T03:16:46;0.82;;;0.70;;
75858;SDS011;64504;51.308;8.620;2022-11-20T03:19:11;1.95;;;1.13;;
75858;SDS011;64504;51.308;8.620;2022-11-20T03:21:37;3.10;;;1.27;;
75858;SDS011;64504;51.308;8.620;2022-11-20T03:24:03;0.73;;;0.73;;
75858;SDS011;64504;51.308;8.620;2022-11-20T03:26:29;0.80;;;0.80;;
75858;SDS011;64504;51.308;8.620;2022-11-20T03:28:55;1.17;;;1.03;;
75858;SDS011;64504;51.308;8.620;2022-11-20T03:31:24;2.00;;;1.10;;
75858;SDS011;64504;51.308;8.620;2022-11-20T03:33:50;1.20;;;1.03;;
75858;SDS011;64504;51.308;8.620;2022-11-20T03:36:16;1.40;;;1.10;;
75858;SDS011;64504;51.308;8.620;2022-11-20T03:38:43;1.00;;;0.77;;
75858;SDS011;64504;51.308;8.620;2022-11-20T03:41:14;0.90;;;0.90;;
75858;SDS011;64504;51.308;8.620;2022-11-20T03:43:46;0.53;;;0.53;;
75858;SDS011;64504;51.308;8.620;2022-11-20T03:46:16;1.17;;;0.90;;
75858;SDS011;64504;51.308;8.620;2022-11-20T03:48:41;1.27;;;1.00;;
75858;SDS011;64504;51.308;8.620;2022-11-20T03:51:12;1.20;;;1.15;;
75858;SDS011;64504;51.308;8.620;2022-11-20T03:53:40;0.57;;;0.57;;
75858;SDS011;64504;51.308;8.620;2022-11-20T03:56:07;0.63;;;0.63;;
75858;SDS011;64504;51.308;8.620;2022-11-20T03:58:33;1.17;;;1.17;;
75858;SDS011;64504;51.308;8.620;2022-11-20T04:01:09;1.47;;;1.47;;
75858;SDS011;64504;51.308;8.620;2022-11-20T04:03:42;1.63;;;1.20;;
75858;SDS011;64504;51.308;8.620;2022-11-20T04:06:09;0.97;;;0.70;;
75858;SDS011;64504;51.308;8.620;2022-11-20T04:08:40;2.33;;;1.53;;
75858;SDS011;64504;51.308;8.620;2022-11-20T04:13:35;1.10;;;1.00;;
75858;SDS011;64504;51.308;8.620;2022-11-20T04:16:01;2.05;;;1.58;;
75858;SDS011;64504;51.308;8.620;2022-11-20T04:18:26;1.30;;;1.20;;
75858;SDS011;64504;51.308;8.620;2022-11-20T04:20:53;1.20;;;1.10;;
75858;SDS011;64504;51.308;8.620;2022-11-20T04:23:18;0.70;;;0.70;;
75858;SDS011;64504;51.308;8.620;2022-11-20T04:25:44;1.25;;;1.10;;
75858;SDS011;64504;51.308;8.620;2022-11-20T04:28:09;1.23;;;1.13;;
75858;SDS011;64504;51.308;8.620;2022-11-20T04:30:35;1.35;;;1.25;;
75858;SDS011;64504;51.308;8.620;2022-11-20T04:33:00;1.58;;;1.08;;
75858;SDS011;64504;51.308;8.620;2022-11-20T04:35:26;2.22;;;1.30;;
75858;SDS011;64504;51.308;8.620;2022-11-20T04:37:51;1.00;;;1.00;;
75858;SDS011;64504;51.308;8.620;2022-11-20T04:40:17;0.97;;;0.90;;
75858;SDS011;64504;51.308;8.620;2022-11-20T04:42:42;0.73;;;0.73;;
75858;SDS011;64504;51.308;8.620;2022-11-20T04:45:08;0.93;;;0.80;;
75858;SDS011;64504;51.308;8.620;2022-11-20T04:47:34;0.98;;;0.82;;
75858;SDS011;64504;51.308;8.620;2022-11-20T04:50:00;1.23;;;0.70;;
75858;SDS011;64504;51.308;8.620;2022-11-20T04:52:25;4.40;;;1.03;;
75858;SDS011;64504;51.308;8.620;2022-11-20T04:54:51;1.38;;;0.75;;
75858;SDS011;64504;51.308;8.620;2022-11-20T04:57:18;2.03;;;1.10;;
75858;SDS011;64504;51.308;8.620;2022-11-20T04:59:43;0.75;;;0.75;;
75858;SDS011;64504;51.308;8.620;2022-11-20T05:02:09;0.60;;;0.57;;
75858;SDS011;64504;51.308;8.620;2022-11-20T05:04:36;3.10;;;1.67;;
75858;SDS011;64504;51.308;8.620;2022-11-20T05:07:02;1.23;;;1.13;;
75858;SDS011;64504;51.308;8.620;2022-11-20T05:09:27;1.20;;;0.80;;
75858;SDS011;64504;51.308;8.620;2022-11-20T05:11:53;0.87;;;0.87;;
75858;SDS011;64504;51.308;8.620;2022-11-20T05:14:19;1.37;;;0.93;;
75858;SDS011;64504;51.308;8.620;2022-11-20T05:16:45;0.80;;;0.80;;
75858;SDS011;64504;51.308;8.620;2022-11-20T05:19:12;1.17;;;1.07;;
75858;SDS011;64504;51.308;8.620;2022-11-20T05:21:38;0.90;;;0.90;;
75858;SDS011;64504;51.308;8.620;2022-11-20T05:24:04;1.23;;;1.03;;
75858;SDS011;64504;51.308;8.620;2022-11-20T05:26:30;6.28;;;1.58;;
75858;SDS011;64504;51.308;8.620;2022-11-20T05:28:56;1.43;;;1.00;;
75858;SDS011;64504;51.308;8.620;2022-11-20T05:31:23;1.42;;;1.33;;
75858;SDS011;64504;51.308;8.620;2022-11-20T05:33:50;1.30;;;1.23;;
75858;SDS011;64504;51.308;8.620;2022-11-20T05:36:16;1.67;;;1.17;;
75858;SDS011;64504;51.308;8.620;2022-11-20T05:38:42;1.33;;;1.23;;
75858;SDS011;64504;51.308;8.620;2022-11-20T05:43:35;1.95;;;1.20;;
75858;SDS011;64504;51.308;8.620;2022-11-20T05:46:02;0.63;;;0.63;;
75858;SDS011;64504;51.308;8.620;2022-11-20T05:48:28;2.28;;;1.35;;
75858;SDS011;64504;51.308;8.620;2022-11-20T05:50:54;4.28;;;0.80;;
75858;SDS011;64504;51.308;8.620;2022-11-20T05:53:19;2.58;;;1.33;;
75858;SDS011;64504;51.308;8.620;2022-11-20T05:55:44;5.05;;;1.08;;
75858;SDS011;64504;51.308;8.620;2022-11-20T05:58:10;1.85;;;0.82;;
75858;SDS011;64504;51.308;8.620;2022-11-20T06:00:36;1.55;;;1.10;;
75858;SDS011;64504;51.308;8.620;2022-11-20T06:03:02;1.55;;;1.05;;
75858;SDS011;64504;51.308;8.620;2022-11-20T06:05:28;1.45;;;1.35;;
75858;SDS011;64504;51.308;8.620;2022-11-20T06:07:54;1.02;;;1.02;;
75858;SDS011;64504;51.308;8.620;2022-11-20T06:10:19;1.10;;;1.00;;
75858;SDS011;64504;51.308;8.620;2022-11-20T06:12:44;0.95;;;0.95;;
75858;SDS011;64504;51.308;8.620;2022-11-20T06:15:10;0.98;;;0.98;;
75858;SDS011;64504;51.308;8.620;2022-11-20T06:17:35;2.15;;;1.65;;
75858;SDS011;64504;51.308;8.620;2022-11-20T06:20:01;2.55;;;1.35;;
75858;SDS011;64504;51.308;8.620;2022-11-20T06:22:27;4.25;;;1.55;;
75858;SDS011;64504;51.308;8.620;2022-11-20T06:24:58;1.85;;;1.30;;
75858;SDS011;64504;51.308;8.620;2022-11-20T06:27:24;2.13;;;1.63;;
75858;SDS011;64504;51.308;8.620;2022-11-20T06:29:54;3.17;;;1.35;;
75858;SDS011;64504;51.308;8.620;2022-11-20T06:32:20;1.80;;;1.20;;
75858;SDS011;64504;51.308;8.620;2022-11-20T06:34:45;0.75;;;0.75;;
75858;SDS011;64504;51.308;8.620;2022-11-20T06:37:11;1.80;;;1.60;;
75858;SDS011;64504;51.308;8.620;2022-11-20T06:39:36;2.13;;;1.27;;
75858;SDS011;64504;51.308;8.620;2022-11-20T06:42:02;3.05;;;2.13;;
75858;SDS011;64504;51.308;8.620;2022-11-20T06:44:27;2.45;;;1.55;;
75858;SDS011;64504;51.308;8.620;2022-11-20T06:46:53;1.50;;;1.40;;
75858;SDS011;64504;51.308;8.620;2022-11-20T06:49:20;1.30;;;1.20;;
75858;SDS011;64504;51.308;8.620;2022-11-20T06:51:48;1.92;;;1.73;;
75858;SDS011;64504;51.308;8.620;2022-11-20T06:54:14;2.38;;;1.40;;
75858;SDS011;64504;51.308;8.620;2022-11-20T06:56:40;1.23;;;1.13;;
75858;SDS011;64504;51.308;8.620;2022-11-20T06:59:06;1.75;;;1.65;;
75858;SDS011;64504;51.308;8.620;2022-11-20T07:01:32;1.60;;;1.50;;
75858;SDS011;64504;51.308;8.620;2022-11-20T07:03:58;2.17;;;1.85;;
75858;SDS011;64504;51.308;8.620;2022-11-20T07:06:24;1.80;;;1.70;;
75858;SDS011;64504;51.308;8.620;2022-11-20T07:08:50;2.72;;;1.52;;
75858;SDS011;64504;51.308;8.620;2022-11-20T07:11:17;2.55;;;1.60;;
75858;SDS011;64504;51.308;8.620;2022-11-20T07:13:43;3.28;;;1.95;;
75858;SDS011;64504;51.308;8.620;2022-11-20T07:16:09;2.65;;;2.03;;
75858;SDS011;64504;51.308;8.620;2022-11-20T07:18:35;2.78;;;2.30;;
75858;SDS011;64504;51.308;8.620;2022-11-20T07:21:06;4.65;;;2.50;;
75858;SDS011;64504;51.308;8.620;2022-11-20T07:23:33;4.38;;;2.72;;
75858;SDS011;64504;51.308;8.620;2022-11-20T07:26:03;2.08;;;1.98;;
75858;SDS011;64504;51.308;8.620;2022-11-20T07:28:33;4.00;;;1.98;;
75858;SDS011;64504;51.308;8.620;2022-11-20T07:30:59;2.95;;;2.72;;
75858;SDS011;64504;51.308;8.620;2022-11-20T07:33:25;2.78;;;2.05;;
75858;SDS011;64504;51.308;8.620;2022-11-20T07:35:51;4.80;;;3.38;;
75858;SDS011;64504;51.308;8.620;2022-11-20T07:38:19;4.78;;;3.38;;
75858;SDS011;64504;51.308;8.620;2022-11-20T07:40:45;2.65;;;2.33;;
75858;SDS011;64504;51.308;8.620;2022-11-20T07:43:11;3.30;;;2.47;;
75858;SDS011;64504;51.308;8.620;2022-11-20T07:45:36;4.18;;;2.80;;
75858;SDS011;64504;51.308;8.620;2022-11-20T07:48:02;4.90;;;3.17;;
75858;SDS011;64504;51.308;8.620;2022-11-20T07:50:30;3.95;;;2.97;;
75858;SDS011;64504;51.308;8.620;2022-11-20T07:53:03;3.45;;;2.55;;
75858;SDS011;64504;51.308;8.620;2022-11-20T07:55:29;3.38;;;2.65;;
75858;SDS011;64504;51.308;8.620;2022-11-20T07:57:55;7.53;;;4.00;;
75858;SDS011;64504;51.308;8.620;2022-11-20T08:00:21;4.00;;;2.97;;
75858;SDS011;64504;51.308;8.620;2022-11-20T08:02:47;6.68;;;3.55;;
75858;SDS011;64504;51.308;8.620;2022-11-20T08:05:13;3.22;;;2.92;;
75858;SDS011;64504;51.308;8.620;2022-11-20T08:07:39;4.70;;;2.75;;
75858;SDS011;64504;51.308;8.620;2022-11-20T08:10:09;6.25;;;3.40;;
75858;SDS011;64504;51.308;8.620;2022-11-20T08:12:36;6.28;;;4.30;;
75858;SDS011;64504;51.308;8.620;2022-11-20T08:15:20;4.85;;;3.28;;
75858;SDS011;64504;51.308;8.620;2022-11-20T08:17:46;4.28;;;2.45;;
75858;SDS011;64504;51.308;8.620;2022-11-20T08:20:15;4.07;;;2.58;;
75858;SDS011;64504;51.308;8.620;2022-11-20T08:22:41;4.13;;;3.60;;
75858;SDS011;64504;51.308;8.620;2022-11-20T08:25:06;2.72;;;2.33;;
75858;SDS011;64504;51.308;8.620;2022-11-20T08:27:32;5.15;;;3.05;;
75858;SDS011;64504;51.308;8.620;2022-11-20T08:29:58;5.03;;;3.53;;
75858;SDS011;64504;51.308;8.620;2022-11-20T08:32:24;2.83;;;2.58;;
75858;SDS011;64504;51.308;8.620;2022-11-20T08:34:49;4.32;;;3.45;;
75858;SDS011;64504;51.308;8.620;2022-11-20T08:37:15;4.35;;;2.67;;
75858;SDS011;64504;51.308;8.620;2022-11-20T08:39:40;4.43;;;3.33;;
75858;SDS011;64504;51.308;8.620;2022-11-20T08:42:07;4.75;;;3.55;;
75858;SDS011;64504;51.308;8.620;2022-11-20T08:44:33;5.07;;;2.83;;
75858;SDS011;64504;51.308;8.620;2022-11-20T08:47:04;4.10;;;3.33;;
75858;SDS011;64504;51.308;8.620;2022-11-20T08:49:29;5.63;;;2.95;;
75858;SDS011;64504;51.308;8.620;2022-11-20T08:51:56;3.25;;;2.38;;
75858;SDS011;64504;51.308;8.620;2022-11-20T08:54:22;3.50;;;3.20;;
75858;SDS011;64504;51.308;8.620;2022-11-20T08:56:48;6.22;;;3.63;;
75858;SDS011;64504;51.308;8.620;2022-11-20T08:59:13;3.13;;;2.72;;
75858;SDS011;64504;51.308;8.620;2022-11-20T09:01:39;3.05;;;2.78;;
75858;SDS011;64504;51.308;8.620;2022-11-20T09:04:05;3.42;;;2.75;;
75858;SDS011;64504;51.308;8.620;2022-11-20T09:06:30;3.53;;;2.75;;
75858;SDS011;64504;51.308;8.620;2022-11-20T09:08:56;4.47;;;2.80;;
75858;SDS011;64504;51.308;8.620;2022-11-20T09:11:22;8.07;;;4.00;;
75858;SDS011;64504;51.308;8.620;2022-11-20T09:13:47;5.22;;;2.85;;
75858;SDS011;64504;51.308;8.620;2022-11-20T09:16:13;4.63;;;4.15;;
75858;SDS011;64504;51.308;8.620;2022-11-20T09:18:39;9.38;;;4.70;;
75858;SDS011;64504;51.308;8.620;2022-11-20T09:21:05;6.53;;;2.55;;
75858;SDS011;64504;51.308;8.620;2022-11-20T09:23:33;2.75;;;2.55;;
75858;SDS011;64504;51.308;8.620;2022-11-20T09:26:07;4.35;;;3.45;;
75858;SDS011;64504;51.308;8.620;2022-11-20T09:28:35;6.27;;;4.17;;
75858;SDS011;64504;51.308;8.620;2022-11-20T09:31:00;4.82;;;3.40;;
75858;SDS011;64504;51.308;8.620;2022-11-20T09:33:26;5.10;;;2.72;;
75858;SDS011;64504;51.308;8.620;2022-11-20T09:35:53;11.48;;;9.60;;
75858;SDS011;64504;51.308;8.620;2022-11-20T09:38:18;5.72;;;4.15;;
75858;SDS011;64504;51.308;8.620;2022-11-20T09:40:45;5.90;;;3.95;;
75858;SDS011;64504;51.308;8.620;2022-11-20T09:43:18;4.72;;;2.83;;
75858;SDS011;64504;51.308;8.620;2022-11-20T09:48:36;4.40;;;3.92;;
75858;SDS011;64504;51.308;8.620;2022-11-20T09:53:51;5.75;;;3.88;;
75858;SDS011;64504;51.308;8.620;2022-11-20T09:56:19;7.55;;;3.40;;
75858;SDS011;64504;51.308;8.620;2022-11-20T09:58:57;5.03;;;3.58;;
75858;SDS011;64504;51.308;8.620;2022-11-20T10:01:32;3.75;;;3.30;;
75858;SDS011;64504;51.308;8.620;2022-11-20T10:04:18;6.15;;;3.38;;
75858;SDS011;64504;51.308;8.620;2022-11-20T10:09:53;2.83;;;2.63;;
75858;SDS011;64504;51.308;8.620;2022-11-20T10:17:54;4.45;;;3.63;;
75858;SDS011;64504;51.308;8.620;2022-11-20T10:20:29;5.95;;;3.95;;
75858;SDS011;64504;51.308;8.620;2022-11-20T10:23:15;6.05;;;4.50;;
75858;SDS011;64504;51.308;8.620;2022-11-20T10:26:13;4.10;;;3.70;;
75858;SDS011;64504;51.308;8.620;2022-11-20T10:31:33;3.67;;;2.92;;
75858;SDS011;64504;51.308;8.620;2022-11-20T10:34:01;3.47;;;2.97;;
75858;SDS011;64504;51.308;8.620;2022-11-20T10:36:33;5.15;;;3.20;;
75858;SDS011;64504;51.308;8.620;2022-11-20T10:41:41;5.47;;;3.97;;
75858;SDS011;64504;51.308;8.620;2022-11-20T10:44:26;4.00;;;3.15;;
75858;SDS011;64504;51.308;8.620;2022-11-20T10:47:17;3.13;;;2.67;;
75858;SDS011;64504;51.308;8.620;2022-11-20T10:49:44;4.80;;;4.35;;
75858;SDS011;64504;51.308;8.620;2022-11-20T10:57:47;6.10;;;3.83;;
75858;SDS011;64504;51.308;8.620;2022-11-20T11:00:19;4.20;;;3.22;;
75858;SDS011;64504;51.308;8.620;2022-11-20T11:02:49;4.68;;;3.75;;
75858;SDS011;64504;51.308;8.620;2022-11-20T11:08:15;5.10;;;3.75;;
75858;SDS011;64504;51.308;8.620;2022-11-20T11:13:29;4.10;;;3.78;;
75858;SDS011;64504;51.308;8.620;2022-11-20T11:15:55;6.57;;;4.32;;
75858;SDS011;64504;51.308;8.620;2022-11-20T11:18:25;4.68;;;4.28;;
75858;SDS011;64504;51.308;8.620;2022-11-20T11:20:53;4.85;;;4.30;;
75858;SDS011;64504;51.308;8.620;2022-11-20T11:23:26;5.63;;;4.63;;
75858;SDS011;64504;51.308;8.620;2022-11-20T11:25:56;5.75;;;4.30;;
75858;SDS011;64504;51.308;8.620;2022-11-20T11:28:24;8.40;;;4.80;;
75858;SDS011;64504;51.308;8.620;2022-11-20T11:30:51;7.15;;;4.55;;
75858;SDS011;64504;51.308;8.620;2022-11-20T11:33:21;5.95;;;3.75;;
75858;SDS011;64504;51.308;8.620;2022-11-20T11:35:52;4.97;;;3.75;;
75858;SDS011;64504;51.308;8.620;2022-11-20T11:38:26;8.10;;;4.82;;
75858;SDS011;64504;51.308;8.620;2022-11-20T11:40:55;6.93;;;5.05;;
75858;SDS011;64504;51.308;8.620;2022-11-20T11:43:26;5.50;;;4.93;;
75858;SDS011;64504;51.308;8.620;2022-11-20T11:49:02;7.25;;;5.75;;
75858;SDS011;64504;51.308;8.620;2022-11-20T11:54:24;5.25;;;4.75;;
75858;SDS011;64504;51.308;8.620;2022-11-20T11:56:51;9.70;;;5.43;;
75858;SDS011;64504;51.308;8.620;2022-11-20T11:59:28;6.13;;;4.68;;
75858;SDS011;64504;51.308;8.620;2022-11-20T12:02:29;6.28;;;4.45;;
75858;SDS011;64504;51.308;8.620;2022-11-20T12:05:08;7.28;;;5.07;;
75858;SDS011;64504;51.308;8.620;2022-11-20T12:10:05;5.10;;;4.40;;
75858;SDS011;64504;51.308;8.620;2022-11-20T12:12:36;6.72;;;5.55;;
75858;SDS011;64504;51.308;8.620;2022-11-20T12:15:08;5.97;;;5.40;;
75858;SDS011;64504;51.308;8.620;2022-11-20T12:17:35;7.38;;;6.00;;
75858;SDS011;64504;51.308;8.620;2022-11-20T12:20:01;8.02;;;5.55;;
75858;SDS011;64504;51.308;8.620;2022-11-20T12:22:41;8.30;;;6.25;;
75858;SDS011;64504;51.308;8.620;2022-11-20T12:25:36;7.97;;;5.75;;
75858;SDS011;64504;51.308;8.620;2022-11-20T12:28:04;11.27;;;5.97;;
75858;SDS011;64504;51.308;8.620;2022-11-20T12:30:48;5.18;;;4.35;;
75858;SDS011;64504;51.308;8.620;2022-11-20T12:36:19;6.95;;;5.97;;
75858;SDS011;64504;51.308;8.620;2022-11-20T12:39:13;8.02;;;6.40;;
75858;SDS011;64504;51.308;8.620;2022-11-20T12:41:45;12.80;;;6.78;;
75858;SDS011;64504;51.308;8.620;2022-11-20T12:50:14;7.90;;;6.75;;
75858;SDS011;64504;51.308;8.620;2022-11-20T12:53:01;11.23;;;7.32;;
75858;SDS011;64504;51.308;8.620;2022-11-20T12:58:36;7.68;;;6.75;;
75858;SDS011;64504;51.308;8.620;2022-11-20T13:04:09;12.35;;;8.23;;
75858;SDS011;64504;51.308;8.620;2022-11-20T13:06:39;10.13;;;7.35;;
75858;SDS011;64504;51.308;8.620;2022-11-20T13:09:08;11.20;;;7.10;;
75858;SDS011;64504;51.308;8.620;2022-11-20T13:14:24;14.00;;;7.55;;
75858;SDS011;64504;51.308;8.620;2022-11-20T13:19:31;11.13;;;7.63;;
75858;SDS011;64504;51.308;8.620;2022-11-20T13:21:57;11.18;;;8.65;;
75858;SDS011;64504;51.308;8.620;2022-11-20T13:24:24;9.30;;;7.47;;
75858;SDS011;64504;51.308;8.620;2022-11-20T13:29:33;14.05;;;9.02;;
75858;SDS011;64504;51.308;8.620;2022-11-20T13:32:03;15.02;;;8.82;;
75858;SDS011;64504;51.308;8.620;2022-11-20T13:34:29;10.45;;;7.82;;
75858;SDS011;64504;51.308;8.620;2022-11-20T13:36:56;13.77;;;8.13;;
75858;SDS011;64504;51.308;8.620;2022-11-20T13:42:03;13.05;;;8.63;;
75858;SDS011;64504;51.308;8.620;2022-11-20T13:44:47;13.40;;;9.02;;
75858;SDS011;64504;51.308;8.620;2022-11-20T13:49:48;12.75;;;8.73;;
75858;SDS011;64504;51.308;8.620;2022-11-20T13:52:30;12.23;;;9.48;;
75858;SDS011;64504;51.308;8.620;2022-11-20T13:55:23;14.57;;;9.52;;
75858;SDS011;64504;51.308;8.620;2022-11-20T13:57:52;11.30;;;7.78;;
75858;SDS011;64504;51.308;8.620;2022-11-20T14:00:48;12.45;;;7.05;;
75858;SDS011;64504;51.308;8.620;2022-11-20T14:03:18;11.02;;;8.18;;
75858;SDS011;64504;51.308;8.620;2022-11-20T14:05:52;14.02;;;10.00;;
75858;SDS011;64504;51.308;8.620;2022-11-20T14:11:18;15.13;;;9.43;;
75858;SDS011;64504;51.308;8.620;2022-11-20T14:13:57;11.20;;;8.27;;
75858;SDS011;64504;51.308;8.620;2022-11-20T14:16:32;11.38;;;7.72;;
75858;SDS011;64504;51.308;8.620;2022-11-20T14:19:17;12.63;;;9.52;;
75858;SDS011;64504;51.308;8.620;2022-11-20T14:21:44;16.33;;;9.77;;
75858;SDS011;64504;51.308;8.620;2022-11-20T14:24:13;15.15;;;9.73;;
75858;SDS011;64504;51.308;8.620;2022-11-20T14:26:44;12.88;;;10.20;;
75858;SDS011;64504;51.308;8.620;2022-11-20T14:29:20;10.15;;;9.05;;
75858;SDS011;64504;51.308;8.620;2022-11-20T14:31:50;13.32;;;9.57;;
75858;SDS011;64504;51.308;8.620;2022-11-20T14:34:24;13.35;;;10.15;;
75858;SDS011;64504;51.308;8.620;2022-11-20T14:36:52;16.55;;;9.50;;
75858;SDS011;64504;51.308;8.620;2022-11-20T14:39:21;9.82;;;8.82;;
75858;SDS011;64504;51.308;8.620;2022-11-20T14:42:16;11.48;;;8.85;;
75858;SDS011;64504;51.308;8.620;2022-11-20T14:44:42;11.32;;;8.40;;
75858;SDS011;64504;51.308;8.620;2022-11-20T14:47:10;13.85;;;10.73;;
75858;SDS011;64504;51.308;8.620;2022-11-20T14:49:40;11.90;;;10.07;;
75858;SDS011;64504;51.308;8.620;2022-11-20T14:52:23;15.27;;;9.65;;
75858;SDS011;64504;51.308;8.620;2022-11-20T14:54:57;10.77;;;9.20;;
75858;SDS011;64504;51.308;8.620;2022-11-20T14:57:27;13.35;;;8.30;;
75858;SDS011;64504;51.308;8.620;2022-11-20T15:00:04;10.55;;;9.50;;
75858;SDS011;64504;51.308;8.620;2022-11-20T15:02:43;14.05;;;9.18;;
75858;SDS011;64504;51.308;8.620;2022-11-20T15:05:10;14.82;;;9.93;;
75858;SDS011;64504;51.308;8.620;2022-11-20T15:07:38;12.48;;;10.02;;
75858;SDS011;64504;51.308;8.620;2022-11-20T15:10:27;17.75;;;10.70;;
75858;SDS011;64504;51.308;8.620;2022-11-20T15:15:53;20.42;;;10.80;;
75858;SDS011;64504;51.308;8.620;2022-11-20T15:18:14;13.70;;;8.50;;
75858;SDS011;64504;51.308;8.620;2022-11-20T15:20:44;16.13;;;10.02;;
75858;SDS011;64504;51.308;8.620;2022-11-20T15:23:10;11.20;;;10.00;;
75858;SDS011;64504;51.308;8.620;2022-11-20T15:25:37;13.80;;;10.68;;
75858;SDS011;64504;51.308;8.620;2022-11-20T15:28:04;18.17;;;11.65;;
75858;SDS011;64504;51.308;8.620;2022-11-20T15:30:44;11.98;;;8.75;;
75858;SDS011;64504;51.308;8.620;2022-11-20T15:33:11;13.95;;;9.77;;
75858;SDS011;64504;51.308;8.620;2022-11-20T15:35:37;13.27;;;10.38;;
75858;SDS011;64504;51.308;8.620;2022-11-20T15:38:02;15.05;;;10.80;;
75858;SDS011;64504;51.308;8.620;2022-11-20T15:40:29;19.20;;;10.88;;
75858;SDS011;64504;51.308;8.620;2022-11-20T15:42:54;13.68;;;9.95;;
75858;SDS011;64504;51.308;8.620;2022-11-20T15:45:39;12.05;;;10.02;;
75858;SDS011;64504;51.308;8.620;2022-11-20T15:48:11;17.88;;;11.02;;
75858;SDS011;64504;51.308;8.620;2022-11-20T15:50:43;15.95;;;10.60;;
75858;SDS011;64504;51.308;8.620;2022-11-20T15:53:19;17.75;;;12.63;;
75858;SDS011;64504;51.308;8.620;2022-11-20T15:55:45;23.13;;;13.35;;
75858;SDS011;64504;51.308;8.620;2022-11-20T15:58:10;17.17;;;11.18;;
75858;SDS011;64504;51.308;8.620;2022-11-20T16:00:36;17.17;;;12.38;;
75858;SDS011;64504;51.308;8.620;2022-11-20T16:03:01;17.38;;;10.98;;
75858;SDS011;64504;51.308;8.620;2022-11-20T16:05:30;17.40;;;11.63;;
75858;SDS011;64504;51.308;8.620;2022-11-20T16:07:56;18.05;;;10.90;;
75858;SDS011;64504;51.308;8.620;2022-11-20T16:10:22;12.70;;;10.68;;
75858;SDS011;64504;51.308;8.620;2022-11-20T16:12:49;13.75;;;10.80;;
75858;SDS011;64504;51.308;8.620;2022-11-20T16:15:33;20.65;;;12.95;;
75858;SDS011;64504;51.308;8.620;2022-11-20T16:18:12;15.85;;;11.50;;
75858;SDS011;64504;51.308;8.620;2022-11-20T16:20:39;15.00;;;10.63;;